Terminal Aerodrome Forecast
Issued by NWS

Home | Current Version | Previous Version | Text Only | Print | Product List | Glossary On
Versions: 1 2 3 4 5 6 7 8 9 10 11 12 13
000
FTUS43 KEAX 270500
TAFMKC
TAF
KMKC 270520Z 2706/2806 01009KT P6SM SCT015 OVC030
      TEMPO 2706/2710 OVC015
     FM271000 01007KT P6SM SCT040
     FM272100 09004KT P6SM BKN150=

USA.gov is the U.S. government's official web portal to all federal, state and local government web resources and services.